Gotland Marieann — C6YL8 — position and weather

sailwx.info

Track history (hours):
 
Tides and Currents Weather Stations Pressure Air Temp Water Temp Dewpoint Dewpoint Depression Visibility Wind Speed Wind Dir Waves Ship Positions

Gotland Marieann

Last reported at 2018-Apr-06 08:22 UTC. Time now 2018-Apr-21 13:46 UTC.
Position N 57°38' E 006°55'.
Warning: this ship's position is 15 days out of date.

Length 183 m; draft 10.8 m.

Type: Ship (hazmat cat D). MMSI: 311037700.

Date/timePositionNaut miles runAvg speedWind from/ knotsBaromVisibWave heightAir tempDewpointWater temp
2018-Apr-06 08:22N 57°38' E 006°55'8311.3
2018-Apr-06 01:03N 57°48' E 009°29'010.1
2018-Apr-06 01:00N 57°48' E 009°30'5 9.8
2018-Apr-06 00:30N 57°48' E 009°39'5 9.4
2018-Apr-06 00:00N 57°48' E 009°48'5 9.1
2018-Apr-05 23:29N 57°49' E 009°57'5 9.2
2018-Apr-05 22:59N 57°49' E 010°06'4 8.8
2018-Apr-05 22:29N 57°49' E 010°14'6 8.5
2018-Apr-05 21:50N 57°49' E 010°24'3 8.3
2018-Apr-05 21:30N 57°49' E 010°30'4 8.8
2018-Apr-05 21:00N 57°49' E 010°38'5 9.1
2018-Apr-05 20:30N 57°49' E 010°46'5 9.6
2018-Apr-05 20:00N 57°46' E 010°54'5 9.4
2018-Apr-05 19:30N 57°44' E 011°02'5 9.8
2018-Apr-05 19:00N 57°42' E 011°11'510.4
2018-Apr-05 18:31N 57°40' E 011°19'510.6
2018-Apr-05 18:00N 57°37' E 011°27'510.7
2018-Apr-05 17:31N 57°34' E 011°36'2 4.4
2018-Apr-05 17:01N 57°33' E 011°40'0 0.3
2018-Apr-05 16:29N 57°34' E 011°40'0 0.0
2018-Apr-05 15:59N 57°34' E 011°40'0 0.4
2018-Apr-05 15:30N 57°34' E 011°40'2 3.6
2018-Apr-05 15:00N 57°36' E 011°40'0 0.2
2018-Apr-05 14:29N 57°36' E 011°41'0 0.0
2018-Apr-05 13:59N 57°36' E 011°41'0 0.0
2018-Apr-05 13:29N 57°36' E 011°40'0 0.0
2018-Apr-05 12:59N 57°36' E 011°40'0 0.0
2018-Apr-05 12:29N 57°36' E 011°40'0 0.1
2018-Apr-05 11:59N 57°36' E 011°40'0 0.1
2018-Apr-05 11:30N 57°36' E 011°40'3 6.1
2018-Apr-05 11:00N 57°33' E 011°37'5 9.8
2018-Apr-05 10:30N 57°28' E 011°36'5 9.5
2018-Apr-05 10:00N 57°24' E 011°34'5 9.3
2018-Apr-05 09:30N 57°19' E 011°33'611.8
2018-Apr-05 09:00N 57°13' E 011°36'612.6
2018-Apr-05 08:30N 57°07' E 011°40'612.5
2018-Apr-05 08:00N 57°01' E 011°44'712.1
2018-Apr-05 07:27N 56°55' E 011°48'9811.4
2018-Apr-04 22:51N 55°21' E 011°02'512.1
2018-Apr-04 22:29N 55°16' E 011°04'510.6
2018-Apr-04 22:00N 55°11' E 011°04'611.5
2018-Apr-04 21:30N 55°06' E 010°59'612.3
2018-Apr-04 21:00N 55°00' E 010°59'611.3
2018-Apr-04 20:30N 54°56' E 010°53'611.7
2018-Apr-04 20:00N 54°50' E 010°50'611.8
2018-Apr-04 19:30N 54°44' E 010°47'510.6
2018-Apr-04 19:00N 54°40' E 010°50'612.7
2018-Apr-04 18:30N 54°36' E 010°60'612.4
2018-Apr-04 18:00N 54°36' E 011°11'611.8
2018-Apr-04 17:30N 54°34' E 011°20'612.7
2018-Apr-04 17:00N 54°31' E 011°29'612.9
2018-Apr-04 16:30N 54°28' E 011°39'612.5
2018-Apr-04 15:59N 54°26' E 011°50'2010.7
2018-Apr-04 14:08N 54°37' E 012°19'213.0
2018-Apr-04 13:59N 54°38' E 012°21'5712.3
2018-Apr-04 09:21N 55°01' E 013°51'512.2
2018-Apr-04 08:58N 55°03' E 013°59'511.9
2018-Apr-04 08:30N 55°06' E 014°07'611.9
2018-Apr-04 08:00N 55°10' E 014°14'612.4
2018-Apr-04 07:30N 55°15' E 014°21'612.8
2018-Apr-04 07:00N 55°20' E 014°28'612.8
2018-Apr-04 06:30N 55°25' E 014°35'712.5
2018-Apr-04 05:58N 55°28' E 014°45'612.5
2018-Apr-04 05:30N 55°31' E 014°54'612.3
2018-Apr-04 05:00N 55°34' E 015°04'712.5
2018-Apr-04 04:26N 55°37' E 015°16'34011.9
2018-Apr-02 23:48N 59°33' E 022°50'611.8
2018-Apr-02 23:19N 59°35' E 023°01'411.7
2018-Apr-02 23:00N 59°36' E 023°08'611.8
2018-Apr-02 22:30N 59°38' E 023°19'611.9
2018-Apr-02 22:00N 59°39' E 023°30'611.9
2018-Apr-02 21:30N 59°41' E 023°42'611.8
2018-Apr-02 21:00N 59°42' E 023°53'611.9
2018-Apr-02 20:28N 59°44' E 024°05'612.0
2018-Apr-02 20:00N 59°46' E 024°16'612.0
2018-Apr-02 19:30N 59°47' E 024°27'611.9
2018-Apr-02 19:00N 59°49' E 024°39'612.0
2018-Apr-02 18:30N 59°50' E 024°50'612.0
2018-Apr-02 18:00N 59°51' E 025°02'611.8
2018-Apr-02 17:30N 59°51' E 025°14'612.0
2018-Apr-02 17:00N 59°52' E 025°26'2412.1
2018-Apr-02 15:02N 59°58' E 026°12'012.1
2018-Apr-02 15:00N 59°58' E 026°13'612.3
2018-Apr-02 14:30N 60°00' E 026°25'612.4
2018-Apr-02 14:01N 60°01' E 026°37'612.6
2018-Apr-02 13:30N 60°01' E 026°49'612.2
2018-Apr-02 13:00N 59°59' E 027°01'612.3
2018-Apr-02 12:30N 60°02' E 027°12'612.5
2018-Apr-02 12:00N 60°05' E 027°23'612.4
2018-Apr-02 11:30N 60°09' E 027°34'612.2
2018-Apr-02 11:00N 60°12' E 027°44'611.9
2018-Apr-02 10:30N 60°11' E 027°56'612.0
2018-Apr-02 10:00N 60°09' E 028°08'611.9
2018-Apr-02 09:30N 60°07' E 028°19'612.5
2018-Apr-02 09:00N 60°04' E 028°30'4 7.7
2018-Apr-02 08:30N 60°01' E 028°36'3 5.6
2018-Apr-02 08:01N 59°59' E 028°35'4 7.0
2018-Apr-02 07:30N 59°55' E 028°33'3 5.2
2018-Apr-02 07:00N 59°53' E 028°30'4 8.5
2018-Apr-02 06:30N 59°50' E 028°26'510.0
2018-Apr-02 06:00N 59°45' E 028°25'3 5.4
2018-Apr-02 05:30N 59°42' E 028°26'0 0.1
2018-Apr-02 04:59N 59°42' E 028°26'0 0.0
2018-Apr-02 04:29N 59°42' E 028°26'0 0.0
2018-Apr-02 03:44N 59°42' E 028°26'0 0.0
2018-Apr-02 03:29N 59°42' E 028°26'0 0.0
2018-Apr-02 02:59N 59°42' E 028°26'0 0.0
2018-Apr-02 02:29N 59°42' E 028°26'0 0.0
2018-Apr-02 01:47N 59°42' E 028°26'0 0.0
2018-Apr-02 01:29N 59°42' E 028°26'0 0.0
2018-Apr-02 00:59N 59°42' E 028°26'0 0.0
2018-Apr-02 00:29N 59°42' E 028°26'0 0.0
2018-Apr-01 23:59N 59°42' E 028°26'0 0.0
2018-Apr-01 23:29N 59°42' E 028°26'0 0.0
2018-Apr-01 22:47N 59°42' E 028°26'0 0.0
2018-Apr-01 22:05N 59°42' E 028°26'0 0.0
2018-Apr-01 21:47N 59°42' E 028°26'0 0.0
2018-Apr-01 21:23N 59°42' E 028°26'0 0.0
2018-Apr-01 20:53N 59°42' E 028°26'0 0.0
2018-Apr-01 20:23N 59°42' E 028°26'0 0.0
2018-Apr-01 19:53N 59°42' E 028°26'0 0.0
2018-Apr-01 19:23N 59°42' E 028°26'0 0.0
2018-Apr-01 17:53N 59°42' E 028°26'0 0.0
2018-Apr-01 17:11N 59°42' E 028°26'0 0.0
2018-Apr-01 16:53N 59°42' E 028°26'0 0.0
2018-Apr-01 16:11N 59°42' E 028°26'0 0.0
2018-Apr-01 15:59N 59°42' E 028°26'0 0.0
2018-Apr-01 14:41N 59°42' E 028°26'0 0.0
2018-Apr-01 14:29N 59°42' E 028°26'0 0.0
2018-Apr-01 13:26N 59°42' E 028°26'0 0.0
2018-Apr-01 12:44N 59°42' E 028°26'0 0.0
2018-Apr-01 12:26N 59°42' E 028°26'0 0.0
2018-Apr-01 11:59N 59°42' E 028°26'0 0.0
2018-Apr-01 11:17N 59°42' E 028°26'0 0.0
2018-Apr-01 10:59N 59°42' E 028°26'0 0.0
2018-Apr-01 10:29N 59°42' E 028°26'0 0.0
2018-Apr-01 09:59N 59°42' E 028°26'0 0.0
2018-Apr-01 09:29N 59°42' E 028°26'0 0.0
2018-Apr-01 08:50N 59°42' E 028°26'0 0.0
2018-Apr-01 08:20N 59°42' E 028°26'0 0.0
2018-Apr-01 07:35N 59°42' E 028°26'0 0.0
2018-Apr-01 07:23N 59°42' E 028°26'0 0.0
2018-Apr-01 06:50N 59°42' E 028°26'0 0.0
2018-Apr-01 06:23N 59°42' E 028°26'0 0.0
2018-Apr-01 05:50N 59°42' E 028°26'0 0.0
2018-Apr-01 05:23N 59°42' E 028°26'0 0.0
2018-Apr-01 04:23N 59°42' E 028°26'0 0.0
2018-Apr-01 03:56N 59°42' E 028°26'0 0.0
2018-Apr-01 03:23N 59°42' E 028°26'0 0.0
2018-Apr-01 02:56N 59°42' E 028°26'0 0.0
2018-Apr-01 02:26N 59°42' E 028°26'0 0.0
2018-Apr-01 01:56N 59°42' E 028°26'0 0.0
2018-Apr-01 01:29N 59°42' E 028°26'0 0.2
2018-Apr-01 00:59N 59°42' E 028°26'1 1.5
2018-Apr-01 00:31N 59°42' E 028°24'4 7.2
2018-Apr-01 00:00N 59°45' E 028°24'3 6.1
2018-Mar-31 23:30N 59°48' E 028°25'3 5.9
2018-Mar-31 23:00N 59°51' E 028°26'4 7.9
2018-Mar-31 22:31N 59°54' E 028°31'2 4.1
2018-Mar-31 22:01N 59°55' E 028°34'1 2.1
2018-Mar-31 21:30N 59°55' E 028°36'0 0.5
2018-Mar-31 20:56N 59°55' E 028°37'0 0.0
2018-Mar-31 20:27N 59°55' E 028°37'0 0.0
2018-Mar-31 19:49N 59°55' E 028°37'0 0.0
2018-Mar-31 19:22N 59°55' E 028°37'0 0.9
2018-Mar-31 19:00N 59°55' E 028°37'2 4.0
2018-Mar-31 18:30N 59°57' E 028°37'4 8.1
2018-Mar-31 18:00N 60°01' E 028°36'5 9.6
2018-Mar-31 17:30N 60°03' E 028°27'611.1
2018-Mar-31 17:00N 60°06' E 028°18'611.8
2018-Mar-31 16:30N 60°08' E 028°07'612.2
2018-Mar-31 16:00N 60°10' E 027°55'611.8
2018-Mar-31 15:30N 60°10' E 027°43'612.9
2018-Mar-31 15:00N 60°06' E 027°32'713.1
2018-Mar-31 14:30N 60°03' E 027°21'712.9
2018-Mar-31 13:58N 59°60' E 027°09'612.2
2018-Mar-31 13:30N 59°58' E 026°58'713.2
2018-Mar-31 13:00N 59°59' E 026°45'612.6
2018-Mar-31 12:30N 59°58' E 026°33'713.2
2018-Mar-31 12:00N 59°56' E 026°20'1112.9
2018-Mar-31 11:11N 59°54' E 025°59'1513.0
2018-Mar-31 10:04N 59°50' E 025°31'112.9
2018-Mar-31 10:00N 59°50' E 025°30'712.9
2018-Mar-31 09:28N 59°49' E 025°16'612.9
2018-Mar-31 09:00N 59°48' E 025°04'612.9
2018-Mar-31 08:30N 59°46' E 024°52'612.9
2018-Mar-31 08:00N 59°45' E 024°39'612.9
2018-Mar-31 07:30N 59°44' E 024°27'612.7
2018-Mar-31 07:00N 59°42' E 024°15'612.9
2018-Mar-31 06:30N 59°40' E 024°03'713.0
2018-Mar-31 06:00N 59°38' E 023°50'713.0
2018-Mar-31 05:30N 59°36' E 023°38'612.9
2018-Mar-31 05:00N 59°34' E 023°26'612.9
2018-Mar-31 04:30N 59°31' E 023°14'612.8
2018-Mar-31 04:00N 59°30' E 023°02'29812.0
2018-Mar-30 03:12N 55°48' E 016°50'313.4
2018-Mar-30 03:00N 55°47' E 016°45'713.2
2018-Mar-30 02:30N 55°46' E 016°34'713.0
2018-Mar-30 02:00N 55°44' E 016°22'713.0
2018-Mar-30 01:30N 55°42' E 016°11'612.9
2018-Mar-30 01:00N 55°41' E 016°00'612.7
2018-Mar-30 00:30N 55°40' E 015°49'612.7
2018-Mar-30 00:00N 55°38' E 015°38'612.7
2018-Mar-29 23:30N 55°37' E 015°28'612.6
2018-Mar-29 23:00N 55°34' E 015°17'612.5
2018-Mar-29 22:30N 55°31' E 015°07'712.3
2018-Mar-29 21:57N 55°29' E 014°56'612.2
2018-Mar-29 21:30N 55°26' E 014°47'611.8
2018-Mar-29 21:00N 55°24' E 014°38'611.8
2018-Mar-29 20:29N 55°19' E 014°31'712.2
2018-Mar-29 19:54N 55°14' E 014°23'512.3
2018-Mar-29 19:29N 55°11' E 014°16'712.5
2018-Mar-29 18:55N 55°10' E 014°03'1912.3
2018-Mar-29 17:24N 55°12' E 013°31'511.7
2018-Mar-29 16:58N 55°12' E 013°22'711.5
2018-Mar-29 16:24N 55°13' E 013°11'411.1
2018-Mar-29 16:00N 55°13' E 013°03'611.2
2018-Mar-29 15:31N 55°14' E 012°53'611.7
2018-Mar-29 15:00N 55°17' E 012°44'5 9.9
2018-Mar-29 14:30N 55°20' E 012°38'713.2
2018-Mar-29 14:00N 55°27' E 012°41'611.3
2018-Mar-29 13:30N 55°33' E 012°42'5 9.0
2018-Mar-29 13:00N 55°37' E 012°42'5 9.9
2018-Mar-29 12:30N 55°42' E 012°41'612.8
2018-Mar-29 12:00N 55°48' E 012°42'612.7
2018-Mar-29 11:30N 55°54' E 012°39'612.5
2018-Mar-29 11:00N 56°01' E 012°38'4 9.0
2018-Mar-29 10:30N 56°05' E 012°35'6010.6
2018-Mar-29 04:48N 56°58' E 011°43'412.8
2018-Mar-29 04:28N 57°02' E 011°40'612.3
2018-Mar-29 04:00N 57°07' E 011°37'611.8
2018-Mar-29 03:30N 57°13' E 011°33'611.8
2018-Mar-29 03:00N 57°18' E 011°29'611.9
2018-Mar-29 02:30N 57°24' E 011°25'611.6
2018-Mar-29 02:00N 57°29' E 011°20'611.7
2018-Mar-29 01:30N 57°33' E 011°12'611.7
2018-Mar-29 01:00N 57°37' E 011°04'611.7
2018-Mar-29 00:30N 57°41' E 010°56'611.3
2018-Mar-29 00:00N 57°45' E 010°49'510.3
2018-Mar-28 23:30N 57°47' E 010°40'510.7
2018-Mar-28 23:00N 57°47' E 010°30'9810.3
2018-Mar-28 13:25N 57°02' E 007°47'511.8
2018-Mar-28 13:00N 56°57' E 007°43'611.9
2018-Mar-28 12:29N 56°52' E 007°39'611.9
2018-Mar-28 11:59N 56°46' E 007°34'612.0
2018-Mar-28 11:28N 56°41' E 007°29'612.1
2018-Mar-28 11:00N 56°36' E 007°24'612.0
2018-Mar-28 10:29N 56°30' E 007°18'612.0
2018-Mar-28 09:59N 56°25' E 007°12'612.2
2018-Mar-28 09:29N 56°20' E 007°06'612.0
2018-Mar-28 08:58N 56°15' E 007°00'611.8
2018-Mar-28 08:28N 56°10' E 006°54'511.2
2018-Mar-28 08:00N 56°06' E 006°49'26411.9
2018-Mar-27 09:51N 52°08' E 003°35'412.9
2018-Mar-27 09:30N 52°06' E 003°41'612.9
2018-Mar-27 09:00N 52°03' E 003°51'5 9.7
2018-Mar-27 08:30N 52°01' E 003°58'  
Track history (hours):
 
Tides and Currents Weather Stations Pressure Air Temp Water Temp Dewpoint Dewpoint Depression Visibility Wind Speed Wind Dir Waves Ship Positions

Gotland Marieann

Last reported at 2018-Apr-06 08:22 UTC. Time now 2018-Apr-21 13:46 UTC.
Position N 57°38' E 006°55'.
Warning: this ship's position is 15 days out of date.

Length 183 m; draft 10.8 m.

Type: Ship (hazmat cat D). MMSI: 311037700.

Date/timePositionNaut miles runAvg speedWind from/ knotsBaromVisibWave heightAir tempDewpointWater temp
2018-Apr-06 08:22N 57°38' E 006°55'8311.3
2018-Apr-06 01:03N 57°48' E 009°29'010.1
2018-Apr-06 01:00N 57°48' E 009°30'5 9.8
2018-Apr-06 00:30N 57°48' E 009°39'5 9.4
2018-Apr-06 00:00N 57°48' E 009°48'5 9.1
2018-Apr-05 23:29N 57°49' E 009°57'5 9.2
2018-Apr-05 22:59N 57°49' E 010°06'4 8.8
2018-Apr-05 22:29N 57°49' E 010°14'6 8.5
2018-Apr-05 21:50N 57°49' E 010°24'3 8.3
2018-Apr-05 21:30N 57°49' E 010°30'4 8.8
2018-Apr-05 21:00N 57°49' E 010°38'5 9.1
2018-Apr-05 20:30N 57°49' E 010°46'5 9.6
2018-Apr-05 20:00N 57°46' E 010°54'5 9.4
2018-Apr-05 19:30N 57°44' E 011°02'5 9.8
2018-Apr-05 19:00N 57°42' E 011°11'510.4
2018-Apr-05 18:31N 57°40' E 011°19'510.6
2018-Apr-05 18:00N 57°37' E 011°27'510.7
2018-Apr-05 17:31N 57°34' E 011°36'2 4.4
2018-Apr-05 17:01N 57°33' E 011°40'0 0.3
2018-Apr-05 16:29N 57°34' E 011°40'0 0.0
2018-Apr-05 15:59N 57°34' E 011°40'0 0.4
2018-Apr-05 15:30N 57°34' E 011°40'2 3.6
2018-Apr-05 15:00N 57°36' E 011°40'0 0.2
2018-Apr-05 14:29N 57°36' E 011°41'0 0.0
2018-Apr-05 13:59N 57°36' E 011°41'0 0.0
2018-Apr-05 13:29N 57°36' E 011°40'0 0.0
2018-Apr-05 12:59N 57°36' E 011°40'0 0.0
2018-Apr-05 12:29N 57°36' E 011°40'0 0.1
2018-Apr-05 11:59N 57°36' E 011°40'0 0.1
2018-Apr-05 11:30N 57°36' E 011°40'3 6.1
2018-Apr-05 11:00N 57°33' E 011°37'5 9.8
2018-Apr-05 10:30N 57°28' E 011°36'5 9.5
2018-Apr-05 10:00N 57°24' E 011°34'5 9.3
2018-Apr-05 09:30N 57°19' E 011°33'611.8
2018-Apr-05 09:00N 57°13' E 011°36'612.6
2018-Apr-05 08:30N 57°07' E 011°40'612.5
2018-Apr-05 08:00N 57°01' E 011°44'712.1
2018-Apr-05 07:27N 56°55' E 011°48'9811.4
2018-Apr-04 22:51N 55°21' E 011°02'512.1
2018-Apr-04 22:29N 55°16' E 011°04'510.6
2018-Apr-04 22:00N 55°11' E 011°04'611.5
2018-Apr-04 21:30N 55°06' E 010°59'612.3
2018-Apr-04 21:00N 55°00' E 010°59'611.3
2018-Apr-04 20:30N 54°56' E 010°53'611.7
2018-Apr-04 20:00N 54°50' E 010°50'611.8
2018-Apr-04 19:30N 54°44' E 010°47'510.6
2018-Apr-04 19:00N 54°40' E 010°50'612.7
2018-Apr-04 18:30N 54°36' E 010°60'612.4
2018-Apr-04 18:00N 54°36' E 011°11'611.8
2018-Apr-04 17:30N 54°34' E 011°20'612.7
2018-Apr-04 17:00N 54°31' E 011°29'612.9
2018-Apr-04 16:30N 54°28' E 011°39'612.5
2018-Apr-04 15:59N 54°26' E 011°50'2010.7
2018-Apr-04 14:08N 54°37' E 012°19'213.0
2018-Apr-04 13:59N 54°38' E 012°21'5712.3
2018-Apr-04 09:21N 55°01' E 013°51'512.2
2018-Apr-04 08:58N 55°03' E 013°59'511.9
2018-Apr-04 08:30N 55°06' E 014°07'611.9
2018-Apr-04 08:00N 55°10' E 014°14'612.4
2018-Apr-04 07:30N 55°15' E 014°21'612.8
2018-Apr-04 07:00N 55°20' E 014°28'612.8
2018-Apr-04 06:30N 55°25' E 014°35'712.5
2018-Apr-04 05:58N 55°28' E 014°45'612.5
2018-Apr-04 05:30N 55°31' E 014°54'612.3
2018-Apr-04 05:00N 55°34' E 015°04'712.5
2018-Apr-04 04:26N 55°37' E 015°16'34011.9
2018-Apr-02 23:48N 59°33' E 022°50'611.8
2018-Apr-02 23:19N 59°35' E 023°01'411.7
2018-Apr-02 23:00N 59°36' E 023°08'611.8
2018-Apr-02 22:30N 59°38' E 023°19'611.9
2018-Apr-02 22:00N 59°39' E 023°30'611.9
2018-Apr-02 21:30N 59°41' E 023°42'611.8
2018-Apr-02 21:00N 59°42' E 023°53'611.9
2018-Apr-02 20:28N 59°44' E 024°05'612.0
2018-Apr-02 20:00N 59°46' E 024°16'612.0
2018-Apr-02 19:30N 59°47' E 024°27'611.9
2018-Apr-02 19:00N 59°49' E 024°39'612.0
2018-Apr-02 18:30N 59°50' E 024°50'612.0
2018-Apr-02 18:00N 59°51' E 025°02'611.8
2018-Apr-02 17:30N 59°51' E 025°14'612.0
2018-Apr-02 17:00N 59°52' E 025°26'2412.1
2018-Apr-02 15:02N 59°58' E 026°12'012.1
2018-Apr-02 15:00N 59°58' E 026°13'612.3
2018-Apr-02 14:30N 60°00' E 026°25'612.4
2018-Apr-02 14:01N 60°01' E 026°37'612.6
2018-Apr-02 13:30N 60°01' E 026°49'612.2
2018-Apr-02 13:00N 59°59' E 027°01'612.3
2018-Apr-02 12:30N 60°02' E 027°12'612.5
2018-Apr-02 12:00N 60°05' E 027°23'612.4
2018-Apr-02 11:30N 60°09' E 027°34'612.2
2018-Apr-02 11:00N 60°12' E 027°44'611.9
2018-Apr-02 10:30N 60°11' E 027°56'612.0
2018-Apr-02 10:00N 60°09' E 028°08'611.9
2018-Apr-02 09:30N 60°07' E 028°19'612.5
2018-Apr-02 09:00N 60°04' E 028°30'4 7.7
2018-Apr-02 08:30N 60°01' E 028°36'3 5.6
2018-Apr-02 08:01N 59°59' E 028°35'4 7.0
2018-Apr-02 07:30N 59°55' E 028°33'3 5.2
2018-Apr-02 07:00N 59°53' E 028°30'4 8.5
2018-Apr-02 06:30N 59°50' E 028°26'510.0
2018-Apr-02 06:00N 59°45' E 028°25'3 5.4
2018-Apr-02 05:30N 59°42' E 028°26'0 0.1
2018-Apr-02 04:59N 59°42' E 028°26'0 0.0
2018-Apr-02 04:29N 59°42' E 028°26'0 0.0
2018-Apr-02 03:44N 59°42' E 028°26'0 0.0
2018-Apr-02 03:29N 59°42' E 028°26'0 0.0
2018-Apr-02 02:59N 59°42' E 028°26'0 0.0
2018-Apr-02 02:29N 59°42' E 028°26'0 0.0
2018-Apr-02 01:47N 59°42' E 028°26'0 0.0
2018-Apr-02 01:29N 59°42' E 028°26'0 0.0
2018-Apr-02 00:59N 59°42' E 028°26'0 0.0
2018-Apr-02 00:29N 59°42' E 028°26'0 0.0
2018-Apr-01 23:59N 59°42' E 028°26'0 0.0
2018-Apr-01 23:29N 59°42' E 028°26'0 0.0
2018-Apr-01 22:47N 59°42' E 028°26'0 0.0
2018-Apr-01 22:05N 59°42' E 028°26'0 0.0
2018-Apr-01 21:47N 59°42' E 028°26'0 0.0
2018-Apr-01 21:23N 59°42' E 028°26'0 0.0
2018-Apr-01 20:53N 59°42' E 028°26'0 0.0
2018-Apr-01 20:23N 59°42' E 028°26'0 0.0
2018-Apr-01 19:53N 59°42' E 028°26'0 0.0
2018-Apr-01 19:23N 59°42' E 028°26'0 0.0
2018-Apr-01 17:53N 59°42' E 028°26'0 0.0
2018-Apr-01 17:11N 59°42' E 028°26'0 0.0
2018-Apr-01 16:53N 59°42' E 028°26'0 0.0
2018-Apr-01 16:11N 59°42' E 028°26'0 0.0
2018-Apr-01 15:59N 59°42' E 028°26'0 0.0
2018-Apr-01 14:41N 59°42' E 028°26'0 0.0
2018-Apr-01 14:29N 59°42' E 028°26'0 0.0
2018-Apr-01 13:26N 59°42' E 028°26'0 0.0
2018-Apr-01 12:44N 59°42' E 028°26'0 0.0
2018-Apr-01 12:26N 59°42' E 028°26'0 0.0
2018-Apr-01 11:59N 59°42' E 028°26'0 0.0
2018-Apr-01 11:17N 59°42' E 028°26'0 0.0
2018-Apr-01 10:59N 59°42' E 028°26'0 0.0
2018-Apr-01 10:29N 59°42' E 028°26'0 0.0
2018-Apr-01 09:59N 59°42' E 028°26'0 0.0
2018-Apr-01 09:29N 59°42' E 028°26'0 0.0
2018-Apr-01 08:50N 59°42' E 028°26'0 0.0
2018-Apr-01 08:20N 59°42' E 028°26'0 0.0
2018-Apr-01 07:35N 59°42' E 028°26'0 0.0
2018-Apr-01 07:23N 59°42' E 028°26'0 0.0
2018-Apr-01 06:50N 59°42' E 028°26'0 0.0
2018-Apr-01 06:23N 59°42' E 028°26'0 0.0
2018-Apr-01 05:50N 59°42' E 028°26'0 0.0
2018-Apr-01 05:23N 59°42' E 028°26'0 0.0
2018-Apr-01 04:23N 59°42' E 028°26'0 0.0
2018-Apr-01 03:56N 59°42' E 028°26'0 0.0
2018-Apr-01 03:23N 59°42' E 028°26'0 0.0
2018-Apr-01 02:56N 59°42' E 028°26'0 0.0
2018-Apr-01 02:26N 59°42' E 028°26'0 0.0
2018-Apr-01 01:56N 59°42' E 028°26'0 0.0
2018-Apr-01 01:29N 59°42' E 028°26'0 0.2
2018-Apr-01 00:59N 59°42' E 028°26'1 1.5
2018-Apr-01 00:31N 59°42' E 028°24'4 7.2
2018-Apr-01 00:00N 59°45' E 028°24'3 6.1
2018-Mar-31 23:30N 59°48' E 028°25'3 5.9
2018-Mar-31 23:00N 59°51' E 028°26'4 7.9
2018-Mar-31 22:31N 59°54' E 028°31'2 4.1
2018-Mar-31 22:01N 59°55' E 028°34'1 2.1
2018-Mar-31 21:30N 59°55' E 028°36'0 0.5
2018-Mar-31 20:56N 59°55' E 028°37'0 0.0
2018-Mar-31 20:27N 59°55' E 028°37'0 0.0
2018-Mar-31 19:49N 59°55' E 028°37'0 0.0
2018-Mar-31 19:22N 59°55' E 028°37'0 0.9
2018-Mar-31 19:00N 59°55' E 028°37'2 4.0
2018-Mar-31 18:30N 59°57' E 028°37'4 8.1
2018-Mar-31 18:00N 60°01' E 028°36'5 9.6
2018-Mar-31 17:30N 60°03' E 028°27'611.1
2018-Mar-31 17:00N 60°06' E 028°18'611.8
2018-Mar-31 16:30N 60°08' E 028°07'612.2
2018-Mar-31 16:00N 60°10' E 027°55'611.8
2018-Mar-31 15:30N 60°10' E 027°43'612.9
2018-Mar-31 15:00N 60°06' E 027°32'713.1
2018-Mar-31 14:30N 60°03' E 027°21'712.9
2018-Mar-31 13:58N 59°60' E 027°09'612.2
2018-Mar-31 13:30N 59°58' E 026°58'713.2
2018-Mar-31 13:00N 59°59' E 026°45'612.6
2018-Mar-31 12:30N 59°58' E 026°33'713.2
2018-Mar-31 12:00N 59°56' E 026°20'1112.9
2018-Mar-31 11:11N 59°54' E 025°59'1513.0
2018-Mar-31 10:04N 59°50' E 025°31'112.9
2018-Mar-31 10:00N 59°50' E 025°30'712.9
2018-Mar-31 09:28N 59°49' E 025°16'612.9
2018-Mar-31 09:00N 59°48' E 025°04'612.9
2018-Mar-31 08:30N 59°46' E 024°52'612.9
2018-Mar-31 08:00N 59°45' E 024°39'612.9
2018-Mar-31 07:30N 59°44' E 024°27'612.7
2018-Mar-31 07:00N 59°42' E 024°15'612.9
2018-Mar-31 06:30N 59°40' E 024°03'713.0
2018-Mar-31 06:00N 59°38' E 023°50'713.0
2018-Mar-31 05:30N 59°36' E 023°38'612.9
2018-Mar-31 05:00N 59°34' E 023°26'612.9
2018-Mar-31 04:30N 59°31' E 023°14'612.8
2018-Mar-31 04:00N 59°30' E 023°02'29812.0
2018-Mar-30 03:12N 55°48' E 016°50'313.4
2018-Mar-30 03:00N 55°47' E 016°45'713.2
2018-Mar-30 02:30N 55°46' E 016°34'713.0
2018-Mar-30 02:00N 55°44' E 016°22'713.0
2018-Mar-30 01:30N 55°42' E 016°11'612.9
2018-Mar-30 01:00N 55°41' E 016°00'612.7
2018-Mar-30 00:30N 55°40' E 015°49'612.7
2018-Mar-30 00:00N 55°38' E 015°38'612.7
2018-Mar-29 23:30N 55°37' E 015°28'612.6
2018-Mar-29 23:00N 55°34' E 015°17'612.5
2018-Mar-29 22:30N 55°31' E 015°07'712.3
2018-Mar-29 21:57N 55°29' E 014°56'612.2
2018-Mar-29 21:30N 55°26' E 014°47'611.8
2018-Mar-29 21:00N 55°24' E 014°38'611.8
2018-Mar-29 20:29N 55°19' E 014°31'712.2
2018-Mar-29 19:54N 55°14' E 014°23'512.3
2018-Mar-29 19:29N 55°11' E 014°16'712.5
2018-Mar-29 18:55N 55°10' E 014°03'1912.3
2018-Mar-29 17:24N 55°12' E 013°31'511.7
2018-Mar-29 16:58N 55°12' E 013°22'711.5
2018-Mar-29 16:24N 55°13' E 013°11'411.1
2018-Mar-29 16:00N 55°13' E 013°03'611.2
2018-Mar-29 15:31N 55°14' E 012°53'611.7
2018-Mar-29 15:00N 55°17' E 012°44'5 9.9
2018-Mar-29 14:30N 55°20' E 012°38'713.2
2018-Mar-29 14:00N 55°27' E 012°41'611.3
2018-Mar-29 13:30N 55°33' E 012°42'5 9.0
2018-Mar-29 13:00N 55°37' E 012°42'5 9.9
2018-Mar-29 12:30N 55°42' E 012°41'612.8
2018-Mar-29 12:00N 55°48' E 012°42'612.7
2018-Mar-29 11:30N 55°54' E 012°39'612.5
2018-Mar-29 11:00N 56°01' E 012°38'4 9.0
2018-Mar-29 10:30N 56°05' E 012°35'6010.6
2018-Mar-29 04:48N 56°58' E 011°43'412.8
2018-Mar-29 04:28N 57°02' E 011°40'612.3
2018-Mar-29 04:00N 57°07' E 011°37'611.8
2018-Mar-29 03:30N 57°13' E 011°33'611.8
2018-Mar-29 03:00N 57°18' E 011°29'611.9
2018-Mar-29 02:30N 57°24' E 011°25'611.6
2018-Mar-29 02:00N 57°29' E 011°20'611.7
2018-Mar-29 01:30N 57°33' E 011°12'611.7
2018-Mar-29 01:00N 57°37' E 011°04'611.7
2018-Mar-29 00:30N 57°41' E 010°56'611.3
2018-Mar-29 00:00N 57°45' E 010°49'510.3
2018-Mar-28 23:30N 57°47' E 010°40'510.7
2018-Mar-28 23:00N 57°47' E 010°30'9810.3
2018-Mar-28 13:25N 57°02' E 007°47'511.8
2018-Mar-28 13:00N 56°57' E 007°43'611.9
2018-Mar-28 12:29N 56°52' E 007°39'611.9
2018-Mar-28 11:59N 56°46' E 007°34'612.0
2018-Mar-28 11:28N 56°41' E 007°29'612.1
2018-Mar-28 11:00N 56°36' E 007°24'612.0
2018-Mar-28 10:29N 56°30' E 007°18'612.0
2018-Mar-28 09:59N 56°25' E 007°12'612.2
2018-Mar-28 09:29N 56°20' E 007°06'612.0
2018-Mar-28 08:58N 56°15' E 007°00'611.8
2018-Mar-28 08:28N 56°10' E 006°54'511.2
2018-Mar-28 08:00N 56°06' E 006°49'26411.9
2018-Mar-27 09:51N 52°08' E 003°35'412.9
2018-Mar-27 09:30N 52°06' E 003°41'612.9
2018-Mar-27 09:00N 52°03' E 003°51'5 9.7
2018-Mar-27 08:30N 52°01' E 003°58'  

Dump ship's entire track history